Time;durP1;ratioP1;P1;durP2;ratioP2;P2;SDS_P1;SDS_P2;PMS_P1;PMS_P2;Temp;Humidity;BMP_temperature;BMP_pressure;BME280_temperature;BME280_humidity;BME280_pressure;Samples;Min_cycle;Max_cycle;Signal;HPM_P1;HPM_P2
2022/01/23 00:01:50;;;;;;;7.30;4.60;;;6.60;99.90;;;;;;5085241;28;20223;-83
2022/01/23 00:04:18;;;;;;;6.90;4.57;;;6.60;99.90;;;;;;5086179;28;20303;-84
2022/01/23 00:06:46;;;;;;;9.53;5.37;;;6.60;99.90;;;;;;5092715;28;20230;-84
2022/01/23 00:09:18;;;;;;;10.10;6.43;;;6.60;99.90;;;;;;5091649;28;20335;-83
2022/01/23 00:11:52;;;;;;;12.53;6.70;;;6.50;99.90;;;;;;5073112;28;20215;-83
2022/01/23 00:17:18;;;;;;;14.00;8.13;;;6.50;99.90;;;;;;5095415;28;20222;-83
2022/01/23 00:19:46;;;;;;;14.83;8.30;;;6.60;99.90;;;;;;5077660;28;20214;-83
2022/01/23 00:22:13;;;;;;;13.50;8.33;;;6.50;99.90;;;;;;5074384;28;20204;-83
2022/01/23 00:32:46;;;;;;;19.63;11.57;;;6.50;99.90;;;;;;5094376;28;20222;-84
2022/01/23 00:35:13;;;;;;;21.30;12.30;;;6.50;99.90;;;;;;5089282;28;20301;-83
2022/01/23 00:37:41;;;;;;;21.37;11.20;;;6.50;99.90;;;;;;5086447;28;20229;-83
2022/01/23 00:40:09;;;;;;;21.23;12.13;;;6.50;99.90;;;;;;5090431;28;20274;-83
2022/01/23 00:42:35;;;;;;;24.27;13.40;;;6.40;99.90;;;;;;5074621;28;20279;-83
2022/01/23 00:45:49;;;;;;;23.77;13.30;;;6.40;99.90;;;;;;5089604;28;20209;-83
2022/01/23 00:47:58;;;;;;;23.07;12.77;;;6.50;99.90;;;;;;5081149;28;20315;-84
2022/01/23 00:50:26;;;;;;;29.50;13.60;;;6.50;99.90;;;;;;5094454;28;20388;-85
2022/01/23 00:52:53;;;;;;;25.87;14.00;;;6.50;99.90;;;;;;5069712;28;20277;-84
2022/01/23 00:55:20;;;;;;;31.37;14.47;;;6.50;99.90;;;;;;5075528;28;20304;-84
2022/01/23 00:57:47;;;;;;;28.57;14.13;;;6.50;99.90;;;;;;5092650;28;20681;-83
2022/01/23 01:00:14;;;;;;;26.03;13.57;;;6.50;99.90;;;;;;5077725;28;20332;-82
2022/01/23 01:02:41;;;;;;;28.23;14.27;;;6.50;99.90;;;;;;5089935;28;20215;-83
2022/01/23 01:05:10;;;;;;;25.10;14.73;;;6.60;99.90;;;;;;5099017;28;20543;-84
2022/01/23 01:07:37;;;;;;;27.87;14.93;;;6.50;99.90;;;;;;5092895;28;20287;-83
2022/01/23 01:10:10;;;;;;;30.33;15.30;;;6.50;99.90;;;;;;5081832;28;20207;-84
2022/01/23 01:12:42;;;;;;;28.53;14.73;;;6.40;99.90;;;;;;5075505;28;20225;-83
2022/01/23 01:31:39;;;;;;;35.03;17.63;;;6.20;99.90;;;;;;5098552;28;20234;-83
2022/01/23 01:34:13;;;;;;;34.93;17.83;;;6.20;99.90;;;;;;5094790;28;20212;-84
2022/01/23 01:36:48;;;;;;;37.63;16.90;;;6.20;99.90;;;;;;5078284;28;20203;-84
2022/01/23 01:39:27;;;;;;;36.93;17.50;;;6.30;99.90;;;;;;5071110;28;20282;-84
2022/01/23 01:41:54;;;;;;;37.20;17.63;;;6.30;99.90;;;;;;5073829;28;20242;-84
2022/01/23 01:44:22;;;;;;;36.83;18.57;;;6.30;99.90;;;;;;5098137;28;20327;-84
2022/01/23 01:46:50;;;;;;;36.83;17.63;;;6.50;99.90;;;;;;5105805;28;20319;-84
2022/01/23 01:49:28;;;;;;;37.30;17.57;;;6.40;99.90;;;;;;5073786;28;20227;-84
2022/01/23 01:51:59;;;;;;;41.03;18.03;;;6.40;99.90;;;;;;5087769;28;20244;-83
2022/01/23 01:54:28;;;;;;;42.47;18.67;;;6.60;99.90;;;;;;5079788;28;20718;-84
2022/01/23 01:57:06;;;;;;;38.57;18.07;;;6.50;99.90;;;;;;5076912;28;20260;-84
2022/01/23 02:02:48;;;;;;;37.40;17.27;;;6.40;99.90;;;;;;5097761;28;20219;-84
2022/01/23 02:08:22;;;;;;;36.97;18.50;;;6.60;99.90;;;;;;5091697;28;20333;-84
2022/01/23 02:10:54;;;;;;;37.40;18.47;;;6.60;99.90;;;;;;5060835;28;20209;-84
2022/01/23 02:13:28;;;;;;;35.60;18.50;;;6.60;99.90;;;;;;5087322;28;20204;-84
2022/01/23 02:51:57;;;;;;;31.47;16.60;;;6.60;99.90;;;;;;5094065;28;20743;-84
2022/01/23 02:54:40;;;;;;;27.23;14.97;;;6.60;99.90;;;;;;5089615;28;20715;-84
2022/01/23 02:57:09;;;;;;;29.47;15.90;;;6.50;99.90;;;;;;5092042;28;20207;-84
2022/01/23 02:59:38;;;;;;;33.10;16.60;;;6.60;99.90;;;;;;5097691;28;20302;-83
2022/01/23 03:02:25;;;;;;;28.93;15.30;;;6.60;99.90;;;;;;5078138;28;20251;-84
2022/01/23 03:04:59;;;;;;;33.37;16.33;;;6.60;99.90;;;;;;5074866;28;20215;-83
2022/01/23 03:10:18;;;;;;;32.67;17.77;;;6.50;99.90;;;;;;5092390;28;20214;-84
2022/01/23 03:26:39;;;;;;;31.37;17.40;;;6.50;99.90;;;;;;5090576;28;20269;-82
2022/01/23 03:29:19;;;;;;;33.67;17.30;;;6.50;99.90;;;;;;5076993;28;20545;-83
2022/01/23 03:34:24;;;;;;;38.30;18.07;;;6.60;99.90;;;;;;5095115;28;20537;-83
2022/01/23 03:36:52;;;;;;;37.37;18.63;;;6.50;99.90;;;;;;5078840;28;20243;-83
2022/01/23 03:39:19;;;;;;;34.13;17.83;;;6.50;99.90;;;;;;5070848;28;20207;-83
2022/01/23 03:41:46;;;;;;;37.50;18.07;;;6.50;99.90;;;;;;5070692;28;20258;-83
2022/01/23 03:44:16;;;;;;;37.03;19.00;;;6.50;99.90;;;;;;5093350;28;20633;-83
2022/01/23 03:49:31;;;;;;;36.70;17.83;;;6.50;99.90;;;;;;5083780;28;20237;-83
2022/01/23 03:52:10;;;;;;;36.20;17.20;;;6.50;99.90;;;;;;5098802;28;20297;-84
2022/01/23 03:54:38;;;;;;;37.23;18.37;;;6.50;99.90;;;;;;5086820;28;20216;-83
2022/01/23 03:57:06;;;;;;;34.63;17.97;;;6.50;99.90;;;;;;5087687;28;20644;-84
2022/01/23 03:59:34;;;;;;;37.10;18.67;;;6.50;99.90;;;;;;5093973;28;20636;-83
2022/01/23 04:02:02;;;;;;;39.77;19.03;;;6.40;99.90;;;;;;5090575;28;20221;-83
2022/01/23 04:04:39;;;;;;;34.97;17.57;;;6.50;99.90;;;;;;5090913;28;20543;-83
2022/01/23 04:07:14;;;;;;;35.50;18.73;;;6.50;99.90;;;;;;5074016;28;20761;-85
2022/01/23 04:09:42;;;;;;;36.60;18.83;;;6.50;99.90;;;;;;5087294;28;20302;-84
2022/01/23 04:12:12;;;;;;;36.90;19.43;;;6.50;99.90;;;;;;5074228;28;20321;-83
2022/01/23 04:14:47;;;;;;;42.23;20.27;;;6.50;99.90;;;;;;5101325;28;20265;-83
2022/01/23 04:18:04;;;;;;;38.77;18.73;;;6.50;99.90;;;;;;5080083;28;20251;-84
2022/01/23 04:20:30;;;;;;;39.90;19.23;;;6.50;99.90;;;;;;5089940;28;20291;-84
2022/01/23 05:01:53;;;;;;;37.03;19.23;;;6.60;99.90;;;;;;5096035;28;20239;-84
2022/01/23 05:04:30;;;;;;;41.53;19.63;;;6.50;99.90;;;;;;5095533;28;20644;-84
2022/01/23 05:07:00;;;;;;;40.33;19.20;;;6.50;99.90;;;;;;5068609;28;20633;-84
2022/01/23 05:09:28;;;;;;;39.27;19.20;;;6.40;99.90;;;;;;5068484;28;20204;-84
2022/01/23 05:11:59;;;;;;;39.13;17.90;;;6.50;99.90;;;;;;5096794;28;20218;-83
2022/01/23 05:14:33;;;;;;;40.80;18.63;;;6.60;99.90;;;;;;5103395;28;20379;-83
2022/01/23 05:17:02;;;;;;;37.03;18.57;;;6.50;99.90;;;;;;5091338;28;20231;-84
2022/01/23 05:19:29;;;;;;;37.83;18.00;;;6.50;99.90;;;;;;5071213;28;20597;-84
2022/01/23 05:24:27;;;;;;;32.33;15.93;;;6.50;99.90;;;;;;5088075;28;20737;-84
2022/01/23 05:27:03;;;;;;;38.40;17.97;;;6.50;99.90;;;;;;5078555;28;20618;-84
2022/01/23 05:29:29;;;;;;;41.23;17.90;;;6.50;99.90;;;;;;5075308;28;20212;-84
2022/01/23 05:31:56;;;;;;;36.70;18.00;;;6.50;99.90;;;;;;5084455;28;20621;-84
2022/01/23 05:34:24;;;;;;;37.97;18.87;;;6.50;99.90;;;;;;5075992;28;20645;-84
2022/01/23 05:36:51;;;;;;;36.97;17.87;;;6.50;99.90;;;;;;5092049;28;20216;-84
2022/01/23 05:39:21;;;;;;;31.63;17.60;;;6.50;99.90;;;;;;5078565;28;20220;-84
2022/01/23 05:41:57;;;;;;;32.50;16.97;;;6.50;99.90;;;;;;5093434;28;20238;-84
2022/01/23 05:44:24;;;;;;;36.23;16.07;;;6.50;99.90;;;;;;5089850;28;20352;-84
2022/01/23 05:46:52;;;;;;;34.23;16.27;;;6.50;99.90;;;;;;5080737;28;20246;-84
2022/01/23 05:49:19;;;;;;;32.50;16.03;;;6.50;99.90;;;;;;5074906;28;20190;-82
2022/01/23 05:51:46;;;;;;;31.97;15.83;;;6.50;99.90;;;;;;5072526;28;20230;-85
2022/01/23 05:54:12;;;;;;;31.57;15.67;;;6.50;99.90;;;;;;5085447;28;20196;-83
2022/01/23 05:56:39;;;;;;;33.27;16.40;;;6.50;99.90;;;;;;5091493;28;20294;-84
2022/01/23 05:59:06;;;;;;;33.97;15.93;;;6.50;99.90;;;;;;5088831;28;20201;-83
2022/01/23 06:01:33;;;;;;;32.20;16.27;;;6.50;99.90;;;;;;5084818;28;20193;-84
2022/01/23 06:04:00;;;;;;;31.30;15.70;;;6.50;99.90;;;;;;5069934;28;20213;-82
2022/01/23 06:06:27;;;;;;;34.33;15.93;;;6.50;99.90;;;;;;5087355;28;20206;-83
2022/01/23 06:08:53;;;;;;;30.70;15.37;;;6.50;99.90;;;;;;5088826;28;20578;-83
2022/01/23 06:11:20;;;;;;;31.83;15.10;;;6.50;99.90;;;;;;5093405;28;20646;-83
2022/01/23 06:13:47;;;;;;;34.17;15.93;;;6.60;99.90;;;;;;5081795;28;20317;-83
2022/01/23 06:16:14;;;;;;;30.60;15.87;;;6.50;99.90;;;;;;5077214;28;20228;-84
2022/01/23 06:18:43;;;;;;;36.20;16.13;;;6.50;99.90;;;;;;5073661;28;20216;-84
2022/01/23 06:21:14;;;;;;;28.77;14.53;;;6.50;99.90;;;;;;5070611;28;20593;-84
2022/01/23 06:23:40;;;;;;;27.67;13.93;;;6.50;99.90;;;;;;5089612;28;20791;-83
2022/01/23 06:26:07;;;;;;;30.87;14.43;;;6.50;99.90;;;;;;5068588;28;20683;-85
2022/01/23 06:28:50;;;;;;;28.13;14.27;;;6.50;99.90;;;;;;5086448;28;20228;-83
2022/01/23 06:31:18;;;;;;;33.03;15.70;;;6.50;99.90;;;;;;5086932;28;20200;-84
2022/01/23 06:33:45;;;;;;;27.57;14.43;;;6.40;99.90;;;;;;5088126;28;20580;-82
2022/01/23 06:36:12;;;;;;;29.00;14.37;;;6.50;99.90;;;;;;5089903;28;20591;-83
2022/01/23 06:38:38;;;;;;;31.40;16.00;;;6.50;99.90;;;;;;5079595;28;20281;-85
2022/01/23 06:41:05;;;;;;;29.93;14.43;;;6.50;99.90;;;;;;5090287;28;20976;-83
2022/01/23 06:45:11;;;;;;;32.43;15.97;;;6.40;99.90;;;;;;5060030;27;1226397;-83
2022/01/23 06:47:39;;;;;;;30.07;15.73;;;6.40;99.90;;;;;;5067145;28;20215;-84
2022/01/23 06:50:10;;;;;;;27.20;13.40;;;6.40;99.90;;;;;;5067493;28;20555;-84
2022/01/23 06:52:37;;;;;;;25.30;13.60;;;6.50;99.90;;;;;;5065728;28;20196;-83
2022/01/23 06:55:04;;;;;;;28.80;14.87;;;6.50;99.90;;;;;;5066155;28;20194;-83
2022/01/23 06:57:31;;;;;;;33.17;15.10;;;6.50;99.90;;;;;;5085818;28;20217;-84
2022/01/23 06:59:58;;;;;;;29.70;14.53;;;6.50;99.90;;;;;;5077405;28;20270;-86
2022/01/23 07:02:24;;;;;;;30.83;14.50;;;6.50;99.90;;;;;;5078941;28;20261;-84
2022/01/23 07:04:51;;;;;;;26.13;13.73;;;6.50;99.90;;;;;;5082169;28;20250;-84
2022/01/23 07:07:18;;;;;;;25.80;13.83;;;6.50;99.90;;;;;;5060809;28;20205;-83
2022/01/23 07:09:45;;;;;;;26.77;13.13;;;6.50;99.90;;;;;;5087875;28;20239;-82
2022/01/23 07:12:12;;;;;;;27.57;13.33;;;6.50;99.90;;;;;;5062936;28;20233;-84
2022/01/23 07:14:39;;;;;;;25.60;13.07;;;6.50;99.90;;;;;;5065103;28;20216;-85
2022/01/23 07:17:06;;;;;;;28.37;13.53;;;6.50;99.90;;;;;;5065501;28;20212;-83
2022/01/23 07:19:33;;;;;;;28.50;13.37;;;6.60;99.90;;;;;;5070487;28;20361;-83
2022/01/23 07:22:00;;;;;;;26.90;13.43;;;6.50;99.90;;;;;;5065504;28;20785;-84
2022/01/23 07:24:27;;;;;;;31.27;14.80;;;6.50;99.90;;;;;;5073173;28;20360;-81
2022/01/23 07:26:54;;;;;;;28.60;13.83;;;6.50;99.90;;;;;;5081585;28;20215;-83
2022/01/23 07:29:20;;;;;;;22.03;12.30;;;6.50;99.90;;;;;;5066946;28;20279;-84
2022/01/23 07:31:59;;;;;;;28.93;13.50;;;6.50;99.90;;;;;;5084346;28;20216;-83
2022/01/23 07:34:27;;;;;;;23.33;12.80;;;6.50;99.90;;;;;;5084949;28;20214;-84
2022/01/23 07:36:54;;;;;;;30.93;12.70;;;6.50;99.90;;;;;;5082107;28;20417;-83
2022/01/23 07:39:24;;;;;;;26.67;13.00;;;6.50;99.90;;;;;;5057980;28;20622;-85
2022/01/23 07:41:50;;;;;;;31.53;15.93;;;6.50;99.90;;;;;;5077620;28;20210;-84
2022/01/23 07:44:17;;;;;;;29.13;15.43;;;6.60;99.90;;;;;;5064045;28;20307;-84
2022/01/23 07:46:44;;;;;;;30.20;15.50;;;6.50;99.90;;;;;;5077618;28;20318;-84
2022/01/23 07:49:11;;;;;;;30.73;15.07;;;6.50;99.90;;;;;;5085838;28;20208;-83
2022/01/23 07:51:38;;;;;;;33.63;16.10;;;6.40;99.90;;;;;;5064022;28;20581;-84
2022/01/23 07:54:06;;;;;;;35.63;15.77;;;6.50;99.90;;;;;;5063878;28;20712;-84
2022/01/23 07:56:33;;;;;;;31.33;14.93;;;6.50;99.90;;;;;;5051419;28;20658;-84
2022/01/23 07:58:59;;;;;;;32.30;17.33;;;6.50;99.90;;;;;;5073377;28;20299;-83
2022/01/23 08:01:26;;;;;;;31.80;15.83;;;6.50;99.90;;;;;;5072543;28;20214;-82
2022/01/23 08:03:53;;;;;;;33.07;16.60;;;6.50;99.90;;;;;;5048549;28;20232;-85
2022/01/23 08:06:21;;;;;;;33.90;16.17;;;6.50;99.90;;;;;;5055156;28;20204;-83
2022/01/23 08:08:48;;;;;;;34.50;17.13;;;6.50;99.90;;;;;;5050102;28;20290;-84
2022/01/23 08:11:15;;;;;;;32.93;16.57;;;6.50;99.90;;;;;;5047587;28;20292;-84
2022/01/23 08:13:42;;;;;;;36.93;16.70;;;6.50;99.90;;;;;;5067812;28;20291;-85
2022/01/23 08:16:10;;;;;;;34.60;16.50;;;6.50;99.90;;;;;;5063502;28;20289;-83
2022/01/23 08:18:37;;;;;;;36.10;16.63;;;6.60;99.90;;;;;;5050746;28;20291;-85
2022/01/23 08:21:04;;;;;;;34.57;16.40;;;6.60;99.90;;;;;;5054358;28;20616;-85
2022/01/23 08:23:31;;;;;;;32.90;16.07;;;6.60;99.90;;;;;;5066715;28;20279;-85
2022/01/23 08:25:58;;;;;;;39.30;16.70;;;6.60;99.90;;;;;;5049338;28;20285;-84
2022/01/23 08:28:25;;;;;;;38.30;17.40;;;6.60;99.90;;;;;;5048198;28;20483;-85
2022/01/23 08:30:52;;;;;;;32.27;16.10;;;6.60;99.90;;;;;;5047008;28;20226;-84
2022/01/23 08:33:28;;;;;;;33.63;16.50;;;6.60;99.90;;;;;;5055565;28;20206;-88
2022/01/23 08:35:57;;;;;;;35.57;17.20;;;6.70;99.90;;;;;;5048991;28;20249;-84
2022/01/23 08:38:24;;;;;;;43.67;17.27;;;6.60;99.90;;;;;;5050324;28;20666;-84
2022/01/23 08:43:38;;;;;;;37.30;17.63;;;6.70;99.90;;;;;;5067639;28;20227;-84
2022/01/23 08:46:05;;;;;;;39.77;18.57;;;6.80;99.90;;;;;;5047681;28;20598;-84
2022/01/23 08:48:32;;;;;;;32.17;16.53;;;6.80;99.90;;;;;;5064006;28;20235;-85
2022/01/23 08:50:59;;;;;;;34.40;17.23;;;6.90;99.90;;;;;;5065766;28;20685;-85
2022/01/23 08:53:26;;;;;;;37.73;17.33;;;6.90;99.90;;;;;;5046019;28;20792;-86
2022/01/23 08:55:53;;;;;;;38.67;18.53;;;6.90;99.90;;;;;;5048327;28;20266;-85
2022/01/23 08:58:20;;;;;;;40.70;17.87;;;7.00;99.90;;;;;;5067882;28;20200;-84
2022/01/23 09:00:47;;;;;;;40.37;18.40;;;7.00;99.90;;;;;;5070574;28;20227;-83
2022/01/23 09:03:14;;;;;;;34.70;18.37;;;7.10;99.90;;;;;;5048431;28;20220;-86
2022/01/23 09:05:41;;;;;;;33.43;16.43;;;7.10;99.90;;;;;;5048891;28;20235;-85
2022/01/23 09:08:07;;;;;;;32.07;17.17;;;7.20;99.90;;;;;;5061613;28;20243;-85
2022/01/23 09:10:53;;;;;;;36.17;18.30;;;7.20;99.90;;;;;;5051567;28;20231;-85
2022/01/23 09:13:32;;;;;;;35.07;17.47;;;7.20;99.90;;;;;;5071000;28;20294;-84
2022/01/23 09:15:59;;;;;;;35.47;17.80;;;7.30;99.90;;;;;;5064131;28;20275;-84
2022/01/23 09:18:27;;;;;;;32.70;16.90;;;7.30;99.90;;;;;;5064105;28;20330;-84
2022/01/23 09:20:54;;;;;;;34.27;18.07;;;7.40;99.90;;;;;;5049492;28;20246;-84
2022/01/23 09:23:20;;;;;;;33.00;17.10;;;7.40;99.90;;;;;;5055306;28;20208;-83
2022/01/23 09:25:49;;;;;;;32.17;16.30;;;7.40;99.90;;;;;;5063434;28;20260;-85
2022/01/23 09:28:18;;;;;;;32.10;17.17;;;7.50;99.90;;;;;;5081610;28;20286;-84
2022/01/23 09:30:49;;;;;;;33.77;16.53;;;7.50;99.90;;;;;;5061957;28;20989;-85
2022/01/23 09:33:17;;;;;;;29.20;15.83;;;7.60;99.90;;;;;;5064324;28;20224;-84
2022/01/23 09:35:43;;;;;;;30.70;17.17;;;7.60;99.90;;;;;;5066777;28;20216;-84
2022/01/23 09:38:10;;;;;;;32.97;17.10;;;7.60;99.90;;;;;;5067423;28;20199;-84
2022/01/23 09:40:43;;;;;;;31.43;17.10;;;7.70;99.90;;;;;;5047437;28;20215;-84
2022/01/23 09:43:18;;;;;;;35.37;16.53;;;7.70;99.90;;;;;;5060014;28;20203;-85
2022/01/23 09:45:50;;;;;;;28.80;16.50;;;7.80;99.90;;;;;;5057059;28;20258;-85
2022/01/23 09:48:18;;;;;;;31.43;16.17;;;7.80;99.90;;;;;;5050795;28;20302;-87
2022/01/23 09:50:48;;;;;;;26.53;15.97;;;7.90;99.90;;;;;;5050532;28;20224;-86
2022/01/23 09:53:16;;;;;;;28.20;16.13;;;8.00;99.90;;;;;;5049742;28;20261;-87
2022/01/23 09:55:49;;;;;;;30.30;16.30;;;8.00;99.90;;;;;;5045051;28;20209;-86
2022/01/23 09:58:16;;;;;;;28.80;15.43;;;8.10;99.90;;;;;;5049030;28;20648;-88
2022/01/23 10:00:42;;;;;;;28.70;14.20;;;8.10;99.90;;;;;;5055629;28;20328;-87
2022/01/23 10:03:10;;;;;;;26.20;14.40;;;8.20;99.90;;;;;;5051340;28;20588;-86
2022/01/23 10:05:38;;;;;;;26.33;15.70;;;8.20;99.90;;;;;;5055264;28;20252;-86
2022/01/23 10:08:07;;;;;;;23.43;12.70;;;8.30;99.90;;;;;;5056708;28;20212;-87
2022/01/23 10:10:39;;;;;;;23.23;13.33;;;8.30;99.90;;;;;;5048197;28;20208;-88
2022/01/23 10:13:07;;;;;;;22.67;14.13;;;8.30;99.90;;;;;;5048824;28;20216;-86
2022/01/23 10:15:34;;;;;;;23.03;13.10;;;8.40;99.90;;;;;;5057074;28;20202;-86
2022/01/23 10:18:02;;;;;;;22.67;12.97;;;8.40;99.90;;;;;;5061139;28;20229;-86
2022/01/23 10:20:30;;;;;;;24.87;14.00;;;8.50;99.90;;;;;;5048894;28;20211;-87
2022/01/23 10:22:58;;;;;;;22.10;13.40;;;8.60;99.90;;;;;;5053966;28;20198;-85
2022/01/23 10:25:29;;;;;;;22.57;14.13;;;8.60;99.90;;;;;;5057450;28;20219;-86
2022/01/23 10:28:07;;;;;;;20.27;12.27;;;8.60;99.90;;;;;;5043967;28;20213;-85
2022/01/23 10:30:40;;;;;;;18.97;12.00;;;8.70;99.90;;;;;;5059568;28;20218;-85
2022/01/23 10:33:12;;;;;;;19.87;11.77;;;8.70;99.90;;;;;;5051842;28;20219;-86
2022/01/23 10:36:00;;;;;;;17.17;10.83;;;8.70;99.90;;;;;;5060246;28;20216;-86
2022/01/23 10:38:33;;;;;;;18.47;11.17;;;8.80;99.90;;;;;;5064323;28;20230;-85
2022/01/23 10:41:27;;;;;;;21.23;12.77;;;8.80;99.90;;;;;;5045712;28;20384;-87
2022/01/23 10:49:52;;;;;;;18.63;10.57;;;8.90;99.90;;;;;;5049318;28;20207;-85
2022/01/23 10:52:40;;;;;;;20.97;11.20;;;9.00;99.90;;;;;;5042226;28;20627;-87
2022/01/23 10:55:13;;;;;;;14.47;9.20;;;9.00;99.90;;;;;;5048399;28;20211;-86
2022/01/23 10:57:45;;;;;;;12.57;7.50;;;9.10;99.90;;;;;;5051673;28;20303;-86
2022/01/23 11:00:44;;;;;;;12.43;8.20;;;9.20;99.90;;;;;;5051823;28;20293;-86
2022/01/23 11:03:21;;;;;;;12.47;7.30;;;9.20;99.90;;;;;;5060757;28;20224;-86
2022/01/23 11:05:50;;;;;;;10.80;6.97;;;9.20;99.90;;;;;;5053608;28;20230;-86
2022/01/23 11:08:37;;;;;;;9.73;5.90;;;9.30;99.90;;;;;;5044634;28;20210;-86
2022/01/23 11:11:06;;;;;;;10.00;6.17;;;9.20;99.90;;;;;;5042272;28;20292;-88
2022/01/23 11:19:18;;;;;;;4.07;2.83;;;9.20;99.90;;;;;;5044589;28;20205;-86
2022/01/23 11:21:45;;;;;;;2.67;2.10;;;9.30;99.90;;;;;;5046632;28;20707;-85
2022/01/23 11:24:23;;;;;;;1.37;1.23;;;9.30;99.90;;;;;;5051875;28;20224;-86
2022/01/23 11:27:00;;;;;;;1.73;1.30;;;9.30;99.90;;;;;;5042449;28;20241;-85
2022/01/23 11:29:27;;;;;;;0.97;0.70;;;9.30;99.90;;;;;;5051274;28;20205;-86
2022/01/23 11:31:53;;;;;;;0.87;0.87;;;9.30;99.90;;;;;;5041996;28;20306;-87
2022/01/23 11:34:23;;;;;;;15.70;1.30;;;9.30;99.90;;;;;;5054734;28;20353;-86
2022/01/23 11:36:51;;;;;;;0.60;0.60;;;9.20;99.90;;;;;;5048137;28;20296;-86
2022/01/23 11:39:37;;;;;;;0.60;0.60;;;9.20;99.90;;;;;;5060413;28;20295;-86
2022/01/23 11:56:25;;;;;;;3.00;1.90;;;9.00;99.90;;;;;;5079468;28;20220;-87
2022/01/23 11:58:54;;;;;;;3.13;1.93;;;9.00;99.90;;;;;;5050786;28;20315;-85
2022/01/23 12:01:26;;;;;;;3.40;2.53;;;8.90;99.90;;;;;;5056720;28;20209;-85
2022/01/23 12:04:22;;;;;;;4.87;2.50;;;8.90;99.90;;;;;;5050685;28;20195;-86
2022/01/23 12:07:10;;;;;;;2.57;2.00;;;8.90;99.90;;;;;;5023811;28;20203;-86
2022/01/23 12:09:43;;;;;;;3.73;2.33;;;8.80;99.90;;;;;;5054973;28;20683;-86
2022/01/23 12:12:38;;;;;;;3.17;2.00;;;8.80;99.90;;;;;;5058957;28;20211;-86
2022/01/23 12:18:28;;;;;;;3.57;2.30;;;8.80;99.90;;;;;;5061583;28;20271;-86
2022/01/23 12:20:56;;;;;;;1.83;1.63;;;8.80;99.90;;;;;;5051728;28;20250;-85
2022/01/23 12:23:23;;;;;;;2.43;1.80;;;8.70;99.90;;;;;;5048010;28;20204;-86
2022/01/23 12:25:55;;;;;;;2.80;1.83;;;8.80;99.90;;;;;;5054341;28;20246;-85
2022/01/23 12:28:31;;;;;;;2.73;1.97;;;8.70;99.90;;;;;;5044617;28;20291;-86
2022/01/23 12:31:15;;;;;;;2.60;2.00;;;8.70;99.90;;;;;;5050228;28;20293;-85
2022/01/23 12:33:44;;;;;;;2.20;1.80;;;8.70;99.90;;;;;;5063298;28;20469;-85
2022/01/23 12:36:14;;;;;;;2.57;1.87;;;8.70;99.90;;;;;;5051809;28;20215;-87
2022/01/23 12:38:48;;;;;;;1.67;1.33;;;8.80;99.90;;;;;;5060950;28;20199;-85
2022/01/23 12:41:25;;;;;;;1.93;1.40;;;8.70;99.90;;;;;;5056494;28;20659;-88
2022/01/23 12:43:55;;;;;;;1.73;1.40;;;8.70;99.90;;;;;;5069053;28;20227;-86
2022/01/23 12:46:24;;;;;;;1.60;1.50;;;8.70;99.90;;;;;;5069121;28;20244;-86
2022/01/23 12:48:51;;;;;;;1.47;1.30;;;8.70;99.90;;;;;;5052729;28;20267;-86
2022/01/23 12:51:20;;;;;;;1.97;1.50;;;8.60;99.90;;;;;;5058631;28;20614;-85
2022/01/23 12:53:46;;;;;;;1.53;1.43;;;8.70;99.90;;;;;;5056200;28;20620;-86
2022/01/23 12:56:16;;;;;;;1.50;1.37;;;8.70;99.90;;;;;;5076720;28;20201;-86
2022/01/23 12:58:50;;;;;;;2.33;1.43;;;8.70;99.90;;;;;;5065374;28;20210;-86
2022/01/23 13:01:25;;;;;;;2.23;1.23;;;8.70;99.90;;;;;;5084219;28;20264;-86
2022/01/23 13:03:53;;;;;;;1.40;1.30;;;8.60;99.90;;;;;;5048714;28;20201;-86
2022/01/23 13:06:49;;;;;;;1.50;1.40;;;8.60;99.90;;;;;;5050766;28;20438;-86
2022/01/23 13:09:28;;;;;;;3.10;1.50;;;8.60;99.90;;;;;;5056049;28;20588;-86
2022/01/23 13:12:15;;;;;;;2.33;1.93;;;8.60;99.90;;;;;;5062175;28;20201;-87
2022/01/23 13:14:57;;;;;;;1.50;1.40;;;8.60;99.90;;;;;;5045334;28;20208;-85
2022/01/23 13:29:52;;;;;;;2.33;1.50;;;8.50;99.90;;;;;;5063914;28;21060;-88
2022/01/23 13:31:59;;;;;;;2.00;1.80;;;8.50;99.90;;;;;;5065596;28;20630;-85
2022/01/23 13:34:28;;;;;;;2.77;2.00;;;8.40;99.90;;;;;;5049946;28;20651;-87
2022/01/23 13:37:04;;;;;;;2.27;1.63;;;8.40;99.90;;;;;;5040674;28;20199;-86
2022/01/23 13:39:38;;;;;;;2.83;1.93;;;8.40;99.90;;;;;;5058118;28;20213;-86
2022/01/23 13:42:13;;;;;;;3.67;2.00;;;8.40;99.90;;;;;;5066890;28;20204;-87
2022/01/23 13:53:34;;;;;;;2.03;1.40;;;8.40;99.90;;;;;;5062861;28;20277;-86
2022/01/23 13:58:54;;;;;;;1.70;1.60;;;8.30;99.90;;;;;;5062646;28;20690;-87
2022/01/23 14:03:54;;;;;;;1.67;1.57;;;8.30;99.90;;;;;;5062715;28;20212;-87
2022/01/23 14:06:20;;;;;;;3.60;1.50;;;8.30;99.90;;;;;;5045637;28;20235;-86
2022/01/23 14:09:21;;;;;;;1.53;1.40;;;8.30;99.90;;;;;;5071177;28;20207;-86
2022/01/23 14:11:49;;;;;;;1.70;1.60;;;8.20;99.90;;;;;;4989127;28;20290;-88
2022/01/23 14:14:19;;;;;;;1.60;1.50;;;8.30;99.90;;;;;;5040442;28;20206;-88
2022/01/23 14:16:48;;;;;;;1.70;1.60;;;8.30;99.90;;;;;;5045804;28;20299;-87
2022/01/23 14:19:27;;;;;;;2.20;1.60;;;8.30;99.90;;;;;;5054812;28;20203;-88
2022/01/23 14:22:01;;;;;;;1.50;1.40;;;8.20;99.90;;;;;;5052448;28;20205;-87
2022/01/23 14:24:34;;;;;;;1.30;1.20;;;8.20;99.90;;;;;;5052600;28;20296;-88
2022/01/23 14:27:10;;;;;;;1.97;1.70;;;8.20;99.90;;;;;;5047299;28;20735;-86
2022/01/23 14:29:54;;;;;;;2.00;1.50;;;8.20;99.90;;;;;;5049356;28;20304;-88
2022/01/23 14:32:40;;;;;;;2.27;1.50;;;8.10;99.90;;;;;;5044392;28;20227;-88
2022/01/23 14:35:11;;;;;;;1.40;1.30;;;8.10;99.90;;;;;;5048327;28;20559;-87
2022/01/23 14:37:41;;;;;;;3.47;1.40;;;8.10;99.90;;;;;;5045624;28;20235;-88
2022/01/23 14:40:25;;;;;;;4.17;1.60;;;8.10;99.90;;;;;;5042302;28;20297;-87
2022/01/23 14:43:11;;;;;;;2.40;1.67;;;8.10;99.90;;;;;;5038776;28;20230;-86
2022/01/23 14:45:44;;;;;;;3.17;2.40;;;8.10;99.90;;;;;;5037586;28;20717;-87
2022/01/23 14:48:13;;;;;;;3.67;2.60;;;8.10;99.90;;;;;;5040741;28;20735;-86
2022/01/23 14:50:45;;;;;;;3.57;2.47;;;8.10;99.90;;;;;;5050114;28;20201;-87
2022/01/23 14:53:15;;;;;;;3.73;2.63;;;8.10;99.90;;;;;;5044223;28;20206;-86
2022/01/23 14:55:45;;;;;;;3.10;2.70;;;8.10;99.90;;;;;;5045535;28;20222;-86
2022/01/23 14:58:14;;;;;;;3.93;2.87;;;8.10;99.90;;;;;;5040007;28;20326;-86
2022/01/23 15:00:41;;;;;;;3.07;2.30;;;8.10;99.90;;;;;;5037310;28;20199;-87
2022/01/23 15:03:27;;;;;;;3.43;2.63;;;8.00;99.90;;;;;;5046952;28;20226;-88
2022/01/23 15:06:00;;;;;;;2.90;2.60;;;8.00;99.90;;;;;;5032526;28;20222;-86
2022/01/23 15:08:32;;;;;;;2.67;2.17;;;8.00;99.90;;;;;;5041260;28;20216;-87
2022/01/23 15:11:02;;;;;;;3.63;2.27;;;8.00;99.90;;;;;;5041532;28;20201;-87
2022/01/23 15:13:30;;;;;;;4.20;2.50;;;8.00;99.90;;;;;;5046468;28;20205;-84
2022/01/23 15:15:58;;;;;;;2.50;2.17;;;8.00;99.90;;;;;;5050521;28;20209;-86
2022/01/23 15:18:26;;;;;;;4.07;2.97;;;8.00;99.90;;;;;;5048190;28;20224;-87
2022/01/23 15:20:53;;;;;;;2.70;2.30;;;7.90;99.90;;;;;;5046131;28;20205;-87
2022/01/23 15:23:20;;;;;;;2.77;2.47;;;8.00;99.90;;;;;;5048558;28;20200;-87
2022/01/23 15:25:47;;;;;;;3.13;2.53;;;7.90;99.90;;;;;;5044428;28;20248;-88
2022/01/23 15:28:15;;;;;;;2.90;2.60;;;8.00;99.90;;;;;;5046938;28;20205;-87
2022/01/23 15:30:44;;;;;;;4.40;2.40;;;7.90;99.90;;;;;;5050059;28;20660;-86
2022/01/23 15:33:12;;;;;;;4.33;2.83;;;7.90;99.90;;;;;;5057099;28;20228;-87
2022/01/23 15:35:46;;;;;;;3.67;3.00;;;7.90;99.90;;;;;;5044151;28;20650;-86
2022/01/23 15:38:15;;;;;;;4.27;3.40;;;7.80;99.90;;;;;;5047458;28;20271;-88
2022/01/23 15:40:43;;;;;;;4.70;3.30;;;7.80;99.90;;;;;;5044636;28;20201;-88
2022/01/23 15:43:15;;;;;;;3.87;2.93;;;7.80;99.90;;;;;;5044224;28;20690;-86
2022/01/23 15:45:43;;;;;;;4.00;3.30;;;7.80;99.90;;;;;;5043714;28;20226;-85
2022/01/23 15:48:13;;;;;;;4.03;3.00;;;7.80;99.90;;;;;;5044281;28;20213;-87
2022/01/23 15:50:40;;;;;;;3.77;3.00;;;7.80;99.90;;;;;;5047810;28;20241;-86
2022/01/23 15:53:07;;;;;;;5.47;3.20;;;7.80;99.90;;;;;;5041928;28;20224;-86
2022/01/23 15:55:35;;;;;;;3.50;2.50;;;7.80;99.90;;;;;;5047065;28;20206;-87
2022/01/23 15:58:03;;;;;;;3.33;2.70;;;7.90;99.90;;;;;;5044313;28;20613;-86
2022/01/23 16:00:34;;;;;;;3.83;2.70;;;7.70;99.90;;;;;;5044852;28;20209;-84
2022/01/23 16:03:03;;;;;;;4.47;2.53;;;7.70;99.90;;;;;;5041265;28;20212;-86
2022/01/23 16:05:30;;;;;;;3.40;2.80;;;7.70;99.90;;;;;;5044703;28;20264;-87
2022/01/23 16:07:57;;;;;;;3.63;2.97;;;7.70;99.90;;;;;;5041644;28;20461;-86
2022/01/23 16:10:24;;;;;;;5.67;3.00;;;7.80;99.90;;;;;;5047501;28;20295;-86
2022/01/23 16:12:51;;;;;;;4.90;3.00;;;7.80;99.90;;;;;;5042605;28;20288;-86
2022/01/23 16:15:18;;;;;;;3.67;3.07;;;7.80;99.90;;;;;;5062809;28;20213;-87